sensor_id;sensor_type;location;lat;lon;timestamp;temperature;humidity
70820;DHT22;58439;51.046;13.692;2023-05-10T00:02:54;13.20;44.30
70820;DHT22;58439;51.046;13.692;2023-05-10T00:05:35;13.20;44.60
70820;DHT22;58439;51.046;13.692;2023-05-10T00:08:48;13.20;44.70
70820;DHT22;58439;51.046;13.692;2023-05-10T00:11:39;13.10;45.00
70820;DHT22;58439;51.046;13.692;2023-05-10T00:14:13;13.10;45.20
70820;DHT22;58439;51.046;13.692;2023-05-10T00:16:49;13.10;45.10
70820;DHT22;58439;51.046;13.692;2023-05-10T00:20:12;13.00;45.30
70820;DHT22;58439;51.046;13.692;2023-05-10T00:23:10;12.90;45.70
70820;DHT22;58439;51.046;13.692;2023-05-10T00:25:46;12.90;45.80
70820;DHT22;58439;51.046;13.692;2023-05-10T00:28:51;12.90;46.10
70820;DHT22;58439;51.046;13.692;2023-05-10T00:33:00;12.90;46.20
70820;DHT22;58439;51.046;13.692;2023-05-10T00:35:51;12.80;46.60
70820;DHT22;58439;51.046;13.692;2023-05-10T00:38:24;12.80;46.70
70820;DHT22;58439;51.046;13.692;2023-05-10T00:40:55;12.80;46.90
70820;DHT22;58439;51.046;13.692;2023-05-10T00:43:31;12.70;47.10
70820;DHT22;58439;51.046;13.692;2023-05-10T00:45:58;12.70;47.60
70820;DHT22;58439;51.046;13.692;2023-05-10T00:48:32;12.60;48.10
70820;DHT22;58439;51.046;13.692;2023-05-10T00:51:38;12.50;48.40
70820;DHT22;58439;51.046;13.692;2023-05-10T00:55:34;12.50;48.70
70820;DHT22;58439;51.046;13.692;2023-05-10T00:59:10;12.50;48.90
70820;DHT22;58439;51.046;13.692;2023-05-10T01:01:54;12.40;49.60
70820;DHT22;58439;51.046;13.692;2023-05-10T01:04:21;12.40;49.70
70820;DHT22;58439;51.046;13.692;2023-05-10T01:06:53;12.40;49.90
70820;DHT22;58439;51.046;13.692;2023-05-10T01:09:21;12.40;50.00
70820;DHT22;58439;51.046;13.692;2023-05-10T01:11:56;12.30;50.40
70820;DHT22;58439;51.046;13.692;2023-05-10T01:14:26;12.20;52.10
70820;DHT22;58439;51.046;13.692;2023-05-10T01:17:00;12.20;51.10
70820;DHT22;58439;51.046;13.692;2023-05-10T01:19:29;12.20;51.60
70820;DHT22;58439;51.046;13.692;2023-05-10T01:25:40;12.10;52.00
70820;DHT22;58439;51.046;13.692;2023-05-10T01:29:03;12.10;52.60
70820;DHT22;58439;51.046;13.692;2023-05-10T01:37:52;12.00;53.40
70820;DHT22;58439;51.046;13.692;2023-05-10T02:00:44;11.90;55.80
70820;DHT22;58439;51.046;13.692;2023-05-10T02:03:49;11.80;56.50
70820;DHT22;58439;51.046;13.692;2023-05-10T02:06:40;11.80;57.20
70820;DHT22;58439;51.046;13.692;2023-05-10T02:09:28;11.80;57.80
70820;DHT22;58439;51.046;13.692;2023-05-10T02:12:27;11.70;58.00
70820;DHT22;58439;51.046;13.692;2023-05-10T02:19:32;11.60;59.80
70820;DHT22;58439;51.046;13.692;2023-05-10T02:23:08;11.50;60.50
70820;DHT22;58439;51.046;13.692;2023-05-10T02:26:17;11.50;61.20
70820;DHT22;58439;51.046;13.692;2023-05-10T02:29:14;11.50;62.00
70820;DHT22;58439;51.046;13.692;2023-05-10T02:31:44;11.50;62.40
70820;DHT22;58439;51.046;13.692;2023-05-10T02:34:13;11.40;62.80
70820;DHT22;58439;51.046;13.692;2023-05-10T02:36:41;11.40;63.10
70820;DHT22;58439;51.046;13.692;2023-05-10T02:39:22;11.40;63.50
70820;DHT22;58439;51.046;13.692;2023-05-10T02:45:33;11.40;64.50
70820;DHT22;58439;51.046;13.692;2023-05-10T02:49:21;11.30;65.40
70820;DHT22;58439;51.046;13.692;2023-05-10T02:52:14;11.20;66.50
70820;DHT22;58439;51.046;13.692;2023-05-10T02:56:47;11.20;66.70
70820;DHT22;58439;51.046;13.692;2023-05-10T03:00:07;11.20;68.80
70820;DHT22;58439;51.046;13.692;2023-05-10T03:02:49;11.10;68.80
70820;DHT22;58439;51.046;13.692;2023-05-10T03:05:32;11.10;68.60
70820;DHT22;58439;51.046;13.692;2023-05-10T03:08:09;11.10;68.90
70820;DHT22;58439;51.046;13.692;2023-05-10T03:23:07;10.80;73.10
70820;DHT22;58439;51.046;13.692;2023-05-10T03:26:33;10.80;73.30
70820;DHT22;58439;51.046;13.692;2023-05-10T03:29:28;10.80;74.30
70820;DHT22;58439;51.046;13.692;2023-05-10T03:32:05;10.80;74.80
70820;DHT22;58439;51.046;13.692;2023-05-10T03:34:45;10.80;75.10
70820;DHT22;58439;51.046;13.692;2023-05-10T03:37:24;10.80;76.60
70820;DHT22;58439;51.046;13.692;2023-05-10T03:39:51;10.80;76.80
70820;DHT22;58439;51.046;13.692;2023-05-10T03:42:19;10.80;76.80
70820;DHT22;58439;51.046;13.692;2023-05-10T03:44:46;10.80;77.50
70820;DHT22;58439;51.046;13.692;2023-05-10T03:47:13;10.80;77.60
70820;DHT22;58439;51.046;13.692;2023-05-10T03:49:40;10.80;77.60
70820;DHT22;58439;51.046;13.692;2023-05-10T03:52:07;10.80;77.80
70820;DHT22;58439;51.046;13.692;2023-05-10T03:54:35;10.80;78.30
70820;DHT22;58439;51.046;13.692;2023-05-10T03:57:02;10.80;78.50
70820;DHT22;58439;51.046;13.692;2023-05-10T03:59:31;10.80;78.70
70820;DHT22;58439;51.046;13.692;2023-05-10T04:01:58;10.80;78.80
70820;DHT22;58439;51.046;13.692;2023-05-10T04:04:25;10.90;78.90
70820;DHT22;58439;51.046;13.692;2023-05-10T04:07:04;10.90;79.20
70820;DHT22;58439;51.046;13.692;2023-05-10T04:09:59;10.90;79.50
70820;DHT22;58439;51.046;13.692;2023-05-10T04:13:15;10.90;79.20
70820;DHT22;58439;51.046;13.692;2023-05-10T04:15:47;11.00;79.30
70820;DHT22;58439;51.046;13.692;2023-05-10T04:18:19;11.00;79.30
70820;DHT22;58439;51.046;13.692;2023-05-10T04:21:25;11.00;79.60
70820;DHT22;58439;51.046;13.692;2023-05-10T04:32:55;11.30;78.10
70820;DHT22;58439;51.046;13.692;2023-05-10T04:41:25;11.50;76.90
70820;DHT22;58439;51.046;13.692;2023-05-10T05:11:32;12.50;67.10
70820;DHT22;58439;51.046;13.692;2023-05-10T05:18:54;12.70;65.10
70820;DHT22;58439;51.046;13.692;2023-05-10T05:31:19;13.10;61.40
70820;DHT22;58439;51.046;13.692;2023-05-10T05:38:52;13.30;60.10
70820;DHT22;58439;51.046;13.692;2023-05-10T05:41:27;13.40;58.40
70820;DHT22;58439;51.046;13.692;2023-05-10T05:44:00;13.50;57.50
70820;DHT22;58439;51.046;13.692;2023-05-10T05:53:41;13.80;55.00
70820;DHT22;58439;51.046;13.692;2023-05-10T05:56:13;13.90;53.80
70820;DHT22;58439;51.046;13.692;2023-05-10T05:58:51;14.00;53.30
70820;DHT22;58439;51.046;13.692;2023-05-10T06:01:21;14.00;52.50
70820;DHT22;58439;51.046;13.692;2023-05-10T06:03:48;14.10;52.20
70820;DHT22;58439;51.046;13.692;2023-05-10T06:06:20;14.20;52.20
70820;DHT22;58439;51.046;13.692;2023-05-10T06:08:47;14.30;52.40
70820;DHT22;58439;51.046;13.692;2023-05-10T06:11:14;14.40;50.70
70820;DHT22;58439;51.046;13.692;2023-05-10T06:13:41;14.50;50.20
70820;DHT22;58439;51.046;13.692;2023-05-10T06:16:09;14.60;49.50
70820;DHT22;58439;51.046;13.692;2023-05-10T06:18:36;14.60;48.90
70820;DHT22;58439;51.046;13.692;2023-05-10T06:21:04;14.70;48.70
70820;DHT22;58439;51.046;13.692;2023-05-10T06:23:31;14.80;48.20
70820;DHT22;58439;51.046;13.692;2023-05-10T06:29:48;15.00;47.80
70820;DHT22;58439;51.046;13.692;2023-05-10T06:39:50;15.30;46.20
70820;DHT22;58439;51.046;13.692;2023-05-10T06:55:50;15.80;43.80
70820;DHT22;58439;51.046;13.692;2023-05-10T06:58:32;15.90;43.60
70820;DHT22;58439;51.046;13.692;2023-05-10T07:01:03;16.00;43.10
70820;DHT22;58439;51.046;13.692;2023-05-10T07:03:32;16.10;43.00
70820;DHT22;58439;51.046;13.692;2023-05-10T07:06:07;16.20;42.70
70820;DHT22;58439;51.046;13.692;2023-05-10T07:08:44;16.20;42.50
70820;DHT22;58439;51.046;13.692;2023-05-10T07:11:11;16.30;42.40
70820;DHT22;58439;51.046;13.692;2023-05-10T07:13:52;16.30;42.00
70820;DHT22;58439;51.046;13.692;2023-05-10T07:16:47;16.40;42.10
70820;DHT22;58439;51.046;13.692;2023-05-10T07:19:40;16.60;41.80
70820;DHT22;58439;51.046;13.692;2023-05-10T07:23:19;16.70;41.00
70820;DHT22;58439;51.046;13.692;2023-05-10T07:25:51;16.60;40.70
70820;DHT22;58439;51.046;13.692;2023-05-10T07:28:19;16.60;40.60
70820;DHT22;58439;51.046;13.692;2023-05-10T07:30:46;16.60;40.90
70820;DHT22;58439;51.046;13.692;2023-05-10T07:33:14;16.70;41.30
70820;DHT22;58439;51.046;13.692;2023-05-10T07:36:12;16.80;40.90
70820;DHT22;58439;51.046;13.692;2023-05-10T07:38:55;16.90;40.30
70820;DHT22;58439;51.046;13.692;2023-05-10T07:41:31;16.90;40.40
70820;DHT22;58439;51.046;13.692;2023-05-10T07:44:05;17.00;40.60
70820;DHT22;58439;51.046;13.692;2023-05-10T07:46:38;17.10;40.40
70820;DHT22;58439;51.046;13.692;2023-05-10T07:49:23;17.10;40.00
70820;DHT22;58439;51.046;13.692;2023-05-10T07:52:37;17.10;40.10
70820;DHT22;58439;51.046;13.692;2023-05-10T07:55:21;17.10;40.20
70820;DHT22;58439;51.046;13.692;2023-05-10T07:58:22;17.20;40.20
70820;DHT22;58439;51.046;13.692;2023-05-10T08:01:04;17.40;40.10
70820;DHT22;58439;51.046;13.692;2023-05-10T08:03:31;17.50;40.10
70820;DHT22;58439;51.046;13.692;2023-05-10T08:06:03;17.60;39.70
70820;DHT22;58439;51.046;13.692;2023-05-10T08:08:31;17.60;39.40
70820;DHT22;58439;51.046;13.692;2023-05-10T08:10:58;17.70;39.10
70820;DHT22;58439;51.046;13.692;2023-05-10T08:13:25;17.70;38.90
70820;DHT22;58439;51.046;13.692;2023-05-10T08:16:17;17.60;39.00
70820;DHT22;58439;51.046;13.692;2023-05-10T08:20:44;17.80;39.10
70820;DHT22;58439;51.046;13.692;2023-05-10T08:32:19;18.30;38.10
70820;DHT22;58439;51.046;13.692;2023-05-10T08:36:04;18.40;38.30
70820;DHT22;58439;51.046;13.692;2023-05-10T08:40:04;18.50;37.90
70820;DHT22;58439;51.046;13.692;2023-05-10T08:43:28;18.60;37.50
70820;DHT22;58439;51.046;13.692;2023-05-10T08:54:31;18.70;36.70
70820;DHT22;58439;51.046;13.692;2023-05-10T08:59:32;18.70;36.60
70820;DHT22;58439;51.046;13.692;2023-05-10T09:03:15;19.00;36.50
70820;DHT22;58439;51.046;13.692;2023-05-10T09:07:25;19.10;36.10
70820;DHT22;58439;51.046;13.692;2023-05-10T09:10:00;19.20;35.90
70820;DHT22;58439;51.046;13.692;2023-05-10T09:12:38;19.40;36.90
70820;DHT22;58439;51.046;13.692;2023-05-10T09:15:21;19.50;35.40
70820;DHT22;58439;51.046;13.692;2023-05-10T09:17:54;19.50;35.10
70820;DHT22;58439;51.046;13.692;2023-05-10T09:21:03;19.70;36.20
70820;DHT22;58439;51.046;13.692;2023-05-10T09:24:25;19.90;35.10
70820;DHT22;58439;51.046;13.692;2023-05-10T09:26:56;20.00;34.90
70820;DHT22;58439;51.046;13.692;2023-05-10T09:29:25;20.00;34.70
70820;DHT22;58439;51.046;13.692;2023-05-10T09:32:05;20.00;34.70
70820;DHT22;58439;51.046;13.692;2023-05-10T09:34:40;20.10;34.40
70820;DHT22;58439;51.046;13.692;2023-05-10T09:42:22;20.40;33.50
70820;DHT22;58439;51.046;13.692;2023-05-10T09:46:17;20.60;33.80
70820;DHT22;58439;51.046;13.692;2023-05-10T09:49:34;20.50;33.80
70820;DHT22;58439;51.046;13.692;2023-05-10T09:52:59;20.80;34.10
70820;DHT22;58439;51.046;13.692;2023-05-10T09:55:45;21.10;32.80
70820;DHT22;58439;51.046;13.692;2023-05-10T09:58:14;21.20;32.70
70820;DHT22;58439;51.046;13.692;2023-05-10T10:00:46;21.40;32.50
70820;DHT22;58439;51.046;13.692;2023-05-10T10:03:34;21.40;32.10
70820;DHT22;58439;51.046;13.692;2023-05-10T10:07:22;21.30;31.70
70820;DHT22;58439;51.046;13.692;2023-05-10T10:09:53;21.30;31.90
70820;DHT22;58439;51.046;13.692;2023-05-10T10:12:20;21.40;32.00
70820;DHT22;58439;51.046;13.692;2023-05-10T10:14:47;21.50;31.60
70820;DHT22;58439;51.046;13.692;2023-05-10T10:17:16;21.50;31.80
70820;DHT22;58439;51.046;13.692;2023-05-10T10:19:45;21.70;31.70
70820;DHT22;58439;51.046;13.692;2023-05-10T10:22:12;21.70;31.30
70820;DHT22;58439;51.046;13.692;2023-05-10T10:24:40;21.70;31.30
70820;DHT22;58439;51.046;13.692;2023-05-10T10:27:22;21.70;31.00
70820;DHT22;58439;51.046;13.692;2023-05-10T10:30:08;21.80;30.90
70820;DHT22;58439;51.046;13.692;2023-05-10T10:36:23;22.00;30.30
70820;DHT22;58439;51.046;13.692;2023-05-10T10:39:42;21.90;30.30
70820;DHT22;58439;51.046;13.692;2023-05-10T10:43:26;21.80;30.40
70820;DHT22;58439;51.046;13.692;2023-05-10T10:46:17;21.80;30.50
70820;DHT22;58439;51.046;13.692;2023-05-10T10:56:22;22.80;29.60
70820;DHT22;58439;51.046;13.692;2023-05-10T10:59:30;22.80;29.50
70820;DHT22;58439;51.046;13.692;2023-05-10T11:02:33;23.10;29.20
70820;DHT22;58439;51.046;13.692;2023-05-10T11:05:42;23.50;28.90
70820;DHT22;58439;51.046;13.692;2023-05-10T11:17:56;24.30;27.00
70820;DHT22;58439;51.046;13.692;2023-05-10T11:20:59;24.50;27.00
70820;DHT22;58439;51.046;13.692;2023-05-10T11:26:14;25.00;25.90
70820;DHT22;58439;51.046;13.692;2023-05-10T11:28:45;24.60;25.90
70820;DHT22;58439;51.046;13.692;2023-05-10T11:31:15;24.70;26.30
70820;DHT22;58439;51.046;13.692;2023-05-10T11:33:51;24.90;26.20
70820;DHT22;58439;51.046;13.692;2023-05-10T11:36:21;25.10;25.90
70820;DHT22;58439;51.046;13.692;2023-05-10T11:38:52;25.40;25.70
70820;DHT22;58439;51.046;13.692;2023-05-10T11:41:22;25.50;25.30
70820;DHT22;58439;51.046;13.692;2023-05-10T11:43:52;25.40;25.00
70820;DHT22;58439;51.046;13.692;2023-05-10T11:46:22;25.30;25.30
70820;DHT22;58439;51.046;13.692;2023-05-10T11:48:51;25.40;25.00
70820;DHT22;58439;51.046;13.692;2023-05-10T11:51:22;25.60;25.00
70820;DHT22;58439;51.046;13.692;2023-05-10T11:54:23;25.80;24.70
70820;DHT22;58439;51.046;13.692;2023-05-10T11:57:26;26.10;24.60
70820;DHT22;58439;51.046;13.692;2023-05-10T12:00:02;26.30;24.30
70820;DHT22;58439;51.046;13.692;2023-05-10T12:06:21;26.40;23.70
70820;DHT22;58439;51.046;13.692;2023-05-10T12:08:49;26.60;23.50
70820;DHT22;58439;51.046;13.692;2023-05-10T12:11:19;26.80;23.60
70820;DHT22;58439;51.046;13.692;2023-05-10T12:13:51;27.10;23.50
70820;DHT22;58439;51.046;13.692;2023-05-10T12:16:20;27.30;23.20
70820;DHT22;58439;51.046;13.692;2023-05-10T12:18:50;27.20;23.20
70820;DHT22;58439;51.046;13.692;2023-05-10T12:21:20;27.20;23.20
70820;DHT22;58439;51.046;13.692;2023-05-10T12:23:54;27.20;23.00
70820;DHT22;58439;51.046;13.692;2023-05-10T12:26:25;27.60;23.00
70820;DHT22;58439;51.046;13.692;2023-05-10T12:29:13;28.00;22.20
70820;DHT22;58439;51.046;13.692;2023-05-10T12:31:55;28.00;21.80
70820;DHT22;58439;51.046;13.692;2023-05-10T12:34:32;27.40;21.90
70820;DHT22;58439;51.046;13.692;2023-05-10T12:37:03;26.90;22.40
70820;DHT22;58439;51.046;13.692;2023-05-10T12:39:40;26.50;22.60
70820;DHT22;58439;51.046;13.692;2023-05-10T12:42:21;26.30;22.80
70820;DHT22;58439;51.046;13.692;2023-05-10T12:45:06;26.20;23.00
70820;DHT22;58439;51.046;13.692;2023-05-10T12:47:34;26.40;22.60
70820;DHT22;58439;51.046;13.692;2023-05-10T12:50:33;26.50;22.60
70820;DHT22;58439;51.046;13.692;2023-05-10T12:53:12;26.50;22.30
70820;DHT22;58439;51.046;13.692;2023-05-10T12:55:47;26.30;22.70
70820;DHT22;58439;51.046;13.692;2023-05-10T12:58:14;26.50;22.60
70820;DHT22;58439;51.046;13.692;2023-05-10T13:01:00;26.60;22.60
70820;DHT22;58439;51.046;13.692;2023-05-10T13:03:27;26.70;22.10
70820;DHT22;58439;51.046;13.692;2023-05-10T13:05:54;26.40;22.00
70820;DHT22;58439;51.046;13.692;2023-05-10T13:08:22;26.10;22.50
70820;DHT22;58439;51.046;13.692;2023-05-10T13:10:50;26.00;22.50
70820;DHT22;58439;51.046;13.692;2023-05-10T13:13:17;26.00;22.40
70820;DHT22;58439;51.046;13.692;2023-05-10T13:15:45;25.90;22.40
70820;DHT22;58439;51.046;13.692;2023-05-10T13:18:13;25.80;22.40
70820;DHT22;58439;51.046;13.692;2023-05-10T13:20:40;25.70;22.60
70820;DHT22;58439;51.046;13.692;2023-05-10T13:23:19;25.70;23.00
70820;DHT22;58439;51.046;13.692;2023-05-10T13:25:46;25.70;23.00
70820;DHT22;58439;51.046;13.692;2023-05-10T13:28:13;25.60;22.90
70820;DHT22;58439;51.046;13.692;2023-05-10T13:30:40;25.40;23.20
70820;DHT22;58439;51.046;13.692;2023-05-10T13:33:11;25.30;23.40
70820;DHT22;58439;51.046;13.692;2023-05-10T13:35:38;25.30;23.30
70820;DHT22;58439;51.046;13.692;2023-05-10T13:38:05;25.50;23.10
70820;DHT22;58439;51.046;13.692;2023-05-10T13:40:34;25.70;22.90
70820;DHT22;58439;51.046;13.692;2023-05-10T13:43:02;25.80;22.60
70820;DHT22;58439;51.046;13.692;2023-05-10T13:45:30;25.90;22.30
70820;DHT22;58439;51.046;13.692;2023-05-10T13:47:57;26.00;22.50
70820;DHT22;58439;51.046;13.692;2023-05-10T13:50:25;26.30;22.40
70820;DHT22;58439;51.046;13.692;2023-05-10T13:52:52;26.70;21.90
70820;DHT22;58439;51.046;13.692;2023-05-10T13:55:19;26.90;21.80
70820;DHT22;58439;51.046;13.692;2023-05-10T13:57:47;27.00;21.90
70820;DHT22;58439;51.046;13.692;2023-05-10T14:00:14;27.10;21.90
70820;DHT22;58439;51.046;13.692;2023-05-10T14:02:43;27.30;21.40
70820;DHT22;58439;51.046;13.692;2023-05-10T14:05:12;27.30;21.40
70820;DHT22;58439;51.046;13.692;2023-05-10T14:07:39;27.30;21.60
70820;DHT22;58439;51.046;13.692;2023-05-10T14:10:07;27.30;22.60
70820;DHT22;58439;51.046;13.692;2023-05-10T14:12:35;27.10;21.90
70820;DHT22;58439;51.046;13.692;2023-05-10T14:15:03;26.90;22.10
70820;DHT22;58439;51.046;13.692;2023-05-10T14:17:32;26.60;22.10
70820;DHT22;58439;51.046;13.692;2023-05-10T14:19:59;26.40;22.40
70820;DHT22;58439;51.046;13.692;2023-05-10T14:22:26;26.30;22.50
70820;DHT22;58439;51.046;13.692;2023-05-10T14:24:54;26.00;22.80
70820;DHT22;58439;51.046;13.692;2023-05-10T14:27:21;25.70;23.70
70820;DHT22;58439;51.046;13.692;2023-05-10T14:29:52;25.30;26.10
70820;DHT22;58439;51.046;13.692;2023-05-10T14:32:45;24.90;27.00
70820;DHT22;58439;51.046;13.692;2023-05-10T14:35:13;24.50;28.60
70820;DHT22;58439;51.046;13.692;2023-05-10T14:37:44;24.20;29.00
70820;DHT22;58439;51.046;13.692;2023-05-10T14:40:12;24.20;29.50
70820;DHT22;58439;51.046;13.692;2023-05-10T14:42:39;24.20;29.90
70820;DHT22;58439;51.046;13.692;2023-05-10T14:45:06;24.10;30.40
70820;DHT22;58439;51.046;13.692;2023-05-10T14:47:34;24.10;30.60
70820;DHT22;58439;51.046;13.692;2023-05-10T14:50:01;24.30;31.70
70820;DHT22;58439;51.046;13.692;2023-05-10T14:52:29;24.40;30.50
70820;DHT22;58439;51.046;13.692;2023-05-10T14:55:10;24.30;31.30
70820;DHT22;58439;51.046;13.692;2023-05-10T14:57:37;24.00;32.80
70820;DHT22;58439;51.046;13.692;2023-05-10T15:00:29;23.60;34.00
70820;DHT22;58439;51.046;13.692;2023-05-10T15:03:09;23.40;34.90
70820;DHT22;58439;51.046;13.692;2023-05-10T15:05:37;23.30;35.10
70820;DHT22;58439;51.046;13.692;2023-05-10T15:08:05;23.30;34.90
70820;DHT22;58439;51.046;13.692;2023-05-10T15:10:32;23.40;34.40
70820;DHT22;58439;51.046;13.692;2023-05-10T15:13:03;23.60;34.70
70820;DHT22;58439;51.046;13.692;2023-05-10T15:15:39;23.50;35.10
70820;DHT22;58439;51.046;13.692;2023-05-10T15:18:06;23.20;35.80
70820;DHT22;58439;51.046;13.692;2023-05-10T15:20:33;23.10;36.60
70820;DHT22;58439;51.046;13.692;2023-05-10T15:23:04;23.20;36.60
70820;DHT22;58439;51.046;13.692;2023-05-10T15:25:31;23.60;35.80
70820;DHT22;58439;51.046;13.692;2023-05-10T15:28:01;23.80;34.80
70820;DHT22;58439;51.046;13.692;2023-05-10T15:30:29;23.80;34.30
70820;DHT22;58439;51.046;13.692;2023-05-10T15:32:57;23.30;35.00
70820;DHT22;58439;51.046;13.692;2023-05-10T15:35:26;22.80;36.40
70820;DHT22;58439;51.046;13.692;2023-05-10T15:37:53;22.20;37.90
70820;DHT22;58439;51.046;13.692;2023-05-10T15:40:20;21.90;39.20
70820;DHT22;58439;51.046;13.692;2023-05-10T15:42:48;21.70;40.20
70820;DHT22;58439;51.046;13.692;2023-05-10T15:45:15;21.40;40.50
70820;DHT22;58439;51.046;13.692;2023-05-10T15:47:42;21.20;41.10
70820;DHT22;58439;51.046;13.692;2023-05-10T15:50:10;21.00;41.70
70820;DHT22;58439;51.046;13.692;2023-05-10T15:52:42;20.80;42.10
70820;DHT22;58439;51.046;13.692;2023-05-10T15:55:50;20.60;43.00
70820;DHT22;58439;51.046;13.692;2023-05-10T15:59:40;20.50;44.60
70820;DHT22;58439;51.046;13.692;2023-05-10T16:02:09;20.20;45.00
70820;DHT22;58439;51.046;13.692;2023-05-10T16:04:42;20.00;46.50
70820;DHT22;58439;51.046;13.692;2023-05-10T16:07:13;19.80;47.80
70820;DHT22;58439;51.046;13.692;2023-05-10T16:09:40;19.60;49.40
70820;DHT22;58439;51.046;13.692;2023-05-10T16:12:08;19.50;51.40
70820;DHT22;58439;51.046;13.692;2023-05-10T16:14:35;19.40;53.60
70820;DHT22;58439;51.046;13.692;2023-05-10T16:17:05;19.50;54.80
70820;DHT22;58439;51.046;13.692;2023-05-10T16:19:33;19.50;55.50
70820;DHT22;58439;51.046;13.692;2023-05-10T16:22:04;19.50;55.00
70820;DHT22;58439;51.046;13.692;2023-05-10T16:24:53;19.60;54.40
70820;DHT22;58439;51.046;13.692;2023-05-10T16:27:36;19.60;54.40
70820;DHT22;58439;51.046;13.692;2023-05-10T16:31:28;19.50;54.80
70820;DHT22;58439;51.046;13.692;2023-05-10T16:39:11;19.60;52.40
70820;DHT22;58439;51.046;13.692;2023-05-10T16:42:56;19.50;52.20
70820;DHT22;58439;51.046;13.692;2023-05-10T16:45:24;19.40;53.10
70820;DHT22;58439;51.046;13.692;2023-05-10T16:47:55;19.40;53.70
70820;DHT22;58439;51.046;13.692;2023-05-10T16:50:49;19.30;53.60
70820;DHT22;58439;51.046;13.692;2023-05-10T16:53:22;19.20;54.00
70820;DHT22;58439;51.046;13.692;2023-05-10T16:57:26;19.20;54.20
70820;DHT22;58439;51.046;13.692;2023-05-10T17:00:22;19.10;54.20
70820;DHT22;58439;51.046;13.692;2023-05-10T17:03:48;19.00;54.90
70820;DHT22;58439;51.046;13.692;2023-05-10T17:07:10;19.00;56.50
70820;DHT22;58439;51.046;13.692;2023-05-10T17:10:25;19.00;57.90
70820;DHT22;58439;51.046;13.692;2023-05-10T17:12:52;19.00;60.10
70820;DHT22;58439;51.046;13.692;2023-05-10T17:15:21;19.00;59.80
70820;DHT22;58439;51.046;13.692;2023-05-10T17:17:49;18.90;60.20
70820;DHT22;58439;51.046;13.692;2023-05-10T17:20:43;18.80;60.90
70820;DHT22;58439;51.046;13.692;2023-05-10T17:23:21;18.70;63.30
70820;DHT22;58439;51.046;13.692;2023-05-10T17:31:13;18.50;66.80
70820;DHT22;58439;51.046;13.692;2023-05-10T17:37:28;18.30;68.30
70820;DHT22;58439;51.046;13.692;2023-05-10T17:40:02;18.30;70.10
70820;DHT22;58439;51.046;13.692;2023-05-10T17:42:32;18.20;71.30
70820;DHT22;58439;51.046;13.692;2023-05-10T17:45:07;18.10;72.40
70820;DHT22;58439;51.046;13.692;2023-05-10T17:47:36;18.00;73.80
70820;DHT22;58439;51.046;13.692;2023-05-10T17:50:31;18.00;74.90
70820;DHT22;58439;51.046;13.692;2023-05-10T17:53:28;18.00;76.40
70820;DHT22;58439;51.046;13.692;2023-05-10T17:56:42;18.00;79.50
70820;DHT22;58439;51.046;13.692;2023-05-10T18:00:06;17.90;82.40
70820;DHT22;58439;51.046;13.692;2023-05-10T18:04:19;17.80;83.80
70820;DHT22;58439;51.046;13.692;2023-05-10T18:07:42;17.60;86.60
70820;DHT22;58439;51.046;13.692;2023-05-10T18:10:10;17.50;87.80
70820;DHT22;58439;51.046;13.692;2023-05-10T18:12:37;17.50;88.10
70820;DHT22;58439;51.046;13.692;2023-05-10T18:15:04;17.40;88.80
70820;DHT22;58439;51.046;13.692;2023-05-10T18:17:35;17.40;89.30
70820;DHT22;58439;51.046;13.692;2023-05-10T18:20:03;17.40;89.30
70820;DHT22;58439;51.046;13.692;2023-05-10T18:22:30;17.30;89.60
70820;DHT22;58439;51.046;13.692;2023-05-10T18:24:57;17.30;90.00
70820;DHT22;58439;51.046;13.692;2023-05-10T18:27:25;17.30;90.10
70820;DHT22;58439;51.046;13.692;2023-05-10T18:29:52;17.20;90.10
70820;DHT22;58439;51.046;13.692;2023-05-10T18:32:19;17.20;90.20
70820;DHT22;58439;51.046;13.692;2023-05-10T18:34:46;17.20;90.30
70820;DHT22;58439;51.046;13.692;2023-05-10T18:37:13;17.20;90.40
70820;DHT22;58439;51.046;13.692;2023-05-10T18:39:41;17.20;90.30
70820;DHT22;58439;51.046;13.692;2023-05-10T18:42:08;17.10;90.30
70820;DHT22;58439;51.046;13.692;2023-05-10T18:44:36;17.10;90.50
70820;DHT22;58439;51.046;13.692;2023-05-10T18:47:03;17.10;90.70
70820;DHT22;58439;51.046;13.692;2023-05-10T18:49:30;17.10;90.70
70820;DHT22;58439;51.046;13.692;2023-05-10T18:52:10;17.00;90.90
70820;DHT22;58439;51.046;13.692;2023-05-10T18:54:41;17.00;91.00
70820;DHT22;58439;51.046;13.692;2023-05-10T18:57:08;17.00;91.00
70820;DHT22;58439;51.046;13.692;2023-05-10T18:59:37;17.00;91.10
70820;DHT22;58439;51.046;13.692;2023-05-10T19:02:05;16.90;91.20
70820;DHT22;58439;51.046;13.692;2023-05-10T19:04:35;16.90;91.40
70820;DHT22;58439;51.046;13.692;2023-05-10T19:07:02;16.80;91.80
70820;DHT22;58439;51.046;13.692;2023-05-10T19:09:30;16.70;91.90
70820;DHT22;58439;51.046;13.692;2023-05-10T19:11:57;16.60;92.00
70820;DHT22;58439;51.046;13.692;2023-05-10T19:14:25;16.50;92.40
70820;DHT22;58439;51.046;13.692;2023-05-10T19:16:56;16.40;92.80
70820;DHT22;58439;51.046;13.692;2023-05-10T19:19:26;16.30;93.10
70820;DHT22;58439;51.046;13.692;2023-05-10T19:21:57;16.30;93.50
70820;DHT22;58439;51.046;13.692;2023-05-10T19:24:24;16.20;93.80
70820;DHT22;58439;51.046;13.692;2023-05-10T19:26:54;16.20;94.00
70820;DHT22;58439;51.046;13.692;2023-05-10T19:29:24;16.20;94.40
70820;DHT22;58439;51.046;13.692;2023-05-10T19:31:51;16.20;94.60
70820;DHT22;58439;51.046;13.692;2023-05-10T19:34:19;16.20;94.70
70820;DHT22;58439;51.046;13.692;2023-05-10T19:36:49;16.20;94.70
70820;DHT22;58439;51.046;13.692;2023-05-10T19:39:16;16.20;94.70
70820;DHT22;58439;51.046;13.692;2023-05-10T19:41:43;16.20;94.80
70820;DHT22;58439;51.046;13.692;2023-05-10T19:44:10;16.20;95.00
70820;DHT22;58439;51.046;13.692;2023-05-10T19:46:38;16.30;95.00
70820;DHT22;58439;51.046;13.692;2023-05-10T19:49:05;16.20;95.10
70820;DHT22;58439;51.046;13.692;2023-05-10T19:51:33;16.20;95.20
70820;DHT22;58439;51.046;13.692;2023-05-10T19:54:00;16.20;95.40
70820;DHT22;58439;51.046;13.692;2023-05-10T19:56:27;16.20;95.30
70820;DHT22;58439;51.046;13.692;2023-05-10T19:58:55;16.10;95.40
70820;DHT22;58439;51.046;13.692;2023-05-10T20:01:22;16.00;95.50
70820;DHT22;58439;51.046;13.692;2023-05-10T20:03:50;16.00;95.90
70820;DHT22;58439;51.046;13.692;2023-05-10T20:06:19;15.90;96.10
70820;DHT22;58439;51.046;13.692;2023-05-10T20:08:46;15.80;96.40
70820;DHT22;58439;51.046;13.692;2023-05-10T20:11:14;15.80;96.60